createdAt,value
2022-08-23T05:26:19.638Z,6.90
2022-08-23T05:28:50.608Z,4.30
2022-08-23T05:31:22.284Z,3.67
2022-08-23T05:33:53.589Z,3.72
2022-08-23T05:36:23.200Z,3.28
2022-08-23T05:38:53.757Z,4.32
2022-08-23T05:41:27.208Z,4.20
2022-08-23T05:44:07.880Z,3.03
2022-08-23T05:46:37.334Z,3.20
2022-08-23T05:49:07.503Z,2.90
2022-08-23T05:51:38.054Z,3.80
2022-08-23T05:54:11.044Z,3.78
2022-08-23T05:56:43.252Z,3.20
2022-08-23T05:59:17.154Z,3.67
2022-08-23T06:01:46.760Z,3.00
2022-08-23T06:04:19.842Z,3.03
2022-08-23T06:06:49.683Z,2.78
2022-08-23T06:09:20.429Z,2.90
2022-08-23T06:11:52.106Z,3.85
2022-08-23T06:14:21.599Z,4.13
2022-08-23T06:16:55.743Z,3.05
2022-08-23T06:19:25.922Z,2.78
2022-08-23T06:21:55.145Z,3.70
2022-08-23T06:24:24.513Z,4.25
2022-08-23T06:26:56.171Z,3.42
2022-08-23T06:29:25.340Z,2.90
2022-08-23T06:31:55.019Z,2.50
2022-08-23T06:34:27.275Z,2.50
2022-08-23T06:36:58.540Z,2.40
2022-08-23T06:39:34.431Z,2.20
2022-08-23T06:42:34.836Z,2.15
2022-08-23T06:44:59.909Z,2.38
2022-08-23T06:47:29.231Z,2.03
2022-08-23T06:49:58.856Z,2.42
2022-08-23T06:52:29.069Z,3.00
2022-08-23T06:54:58.369Z,3.03
2022-08-23T06:57:29.155Z,3.20
2022-08-23T06:59:58.334Z,2.88
2022-08-23T07:02:28.257Z,2.67
2022-08-23T07:04:57.855Z,3.35
2022-08-23T07:07:41.292Z,2.80
2022-08-23T07:10:14.333Z,2.47
2022-08-23T07:12:45.277Z,2.17
2022-08-23T07:15:14.595Z,2.53
2022-08-23T07:17:43.745Z,2.63
2022-08-23T07:20:13.008Z,2.45
2022-08-23T07:22:42.341Z,2.35
2022-08-23T07:25:11.779Z,2.45
2022-08-23T07:27:41.197Z,2.42
2022-08-23T07:30:13.548Z,2.40
2022-08-23T07:32:42.821Z,2.40
2022-08-23T07:35:12.100Z,2.70
2022-08-23T07:37:41.369Z,2.75
2022-08-23T07:40:15.863Z,2.80
2022-08-23T07:42:49.994Z,2.50
2022-08-23T07:45:22.286Z,2.40
2022-08-23T07:47:52.712Z,2.30
2022-08-23T07:50:22.996Z,3.20
2022-08-23T07:52:52.312Z,2.58
2022-08-23T07:55:21.829Z,2.10
2022-08-23T07:57:51.264Z,2.10
2022-08-23T08:00:23.364Z,2.35
2022-08-23T08:02:52.728Z,3.80
2022-08-23T08:05:26.369Z,3.05
2022-08-23T08:07:55.704Z,2.40
2022-08-23T08:10:25.002Z,2.65
2022-08-23T08:12:54.204Z,1.90
2022-08-23T08:15:26.085Z,2.38
2022-08-23T08:17:55.621Z,2.25
2022-08-23T08:20:28.648Z,2.17
2022-08-23T08:22:59.176Z,2.30
2022-08-23T08:25:31.431Z,3.00
2022-08-23T08:28:01.001Z,2.30
2022-08-23T08:30:33.078Z,3.80
2022-08-23T08:33:02.491Z,3.83
2022-08-23T08:35:31.771Z,2.90
2022-08-23T08:38:01.061Z,3.72
2022-08-23T08:40:35.943Z,2.30
2022-08-23T08:43:23.544Z,2.10
2022-08-23T08:46:07.324Z,2.03
2022-08-23T08:48:43.598Z,2.42
2022-08-23T08:51:29.886Z,2.22
2022-08-23T08:54:01.354Z,3.38
2022-08-23T08:56:34.290Z,1.90
2022-08-23T08:59:08.361Z,1.88
2022-08-23T09:01:41.923Z,1.70
2022-08-23T09:04:17.077Z,1.90
2022-08-23T09:06:58.976Z,2.20
2022-08-23T09:09:51.568Z,2.38
2022-08-23T09:12:28.270Z,2.10
2022-08-23T09:15:16.977Z,1.90
2022-08-23T09:17:53.548Z,1.92
2022-08-23T09:20:32.987Z,2.45
2022-08-23T09:23:09.053Z,3.05
2022-08-23T09:25:38.819Z,3.00
2022-08-23T09:28:08.533Z,2.10
2022-08-23T09:30:54.879Z,2.10
2022-08-23T09:33:27.215Z,2.75
2022-08-23T09:36:09.234Z,2.53
2022-08-23T09:38:41.675Z,2.03
2022-08-23T09:41:20.829Z,1.70
2022-08-23T09:43:50.420Z,1.65
2022-08-23T09:46:28.841Z,2.00
2022-08-23T09:49:01.888Z,1.83
2022-08-23T09:51:35.299Z,1.98
2022-08-23T09:54:12.491Z,1.80
2022-08-23T09:56:45.602Z,1.90
2022-08-23T09:59:40.337Z,2.63
2022-08-23T10:02:17.311Z,2.95
2022-08-23T10:04:57.943Z,2.28
2022-08-23T10:07:34.693Z,1.48
2022-08-23T10:10:29.856Z,2.10
2022-08-23T10:13:01.027Z,1.70
2022-08-23T10:15:42.921Z,1.63
2022-08-23T10:18:21.411Z,1.98
2022-08-23T10:21:03.598Z,2.25
2022-08-23T10:23:49.697Z,1.90
2022-08-23T10:26:25.993Z,1.80
2022-08-23T10:29:22.344Z,2.03
2022-08-23T10:31:59.411Z,1.80
2022-08-23T10:34:47.129Z,1.90
2022-08-23T10:37:37.291Z,2.55
2022-08-23T10:40:13.800Z,3.00
2022-08-23T10:42:53.762Z,2.00
2022-08-23T10:45:28.026Z,2.22
2022-08-23T10:48:15.596Z,2.30
2022-08-23T10:50:55.883Z,2.13
2022-08-23T10:53:36.697Z,1.63
2022-08-23T10:56:08.584Z,1.98
2022-08-23T10:58:44.171Z,1.75
2022-08-23T11:01:21.948Z,1.58
2022-08-23T11:04:02.069Z,1.48
2022-08-23T11:06:46.278Z,1.35
2022-08-23T11:09:50.217Z,1.73
2022-08-23T11:12:29.693Z,2.25
2022-08-23T11:15:15.351Z,4.13
2022-08-23T11:17:58.195Z,1.75
2022-08-23T11:21:04.096Z,1.70
2022-08-23T11:23:45.723Z,1.70
2022-08-23T11:27:07.121Z,1.75
2022-08-23T11:29:43.623Z,2.67
2022-08-23T11:32:47.278Z,2.42
2022-08-23T11:35:43.028Z,1.88
2022-08-23T11:38:14.730Z,1.75
2022-08-23T11:41:00.864Z,1.95
2022-08-23T11:43:42.512Z,2.00
2022-08-23T11:46:32.424Z,2.00
2022-08-23T11:49:31.260Z,1.98
2022-08-23T11:52:13.858Z,2.10
2022-08-23T11:55:09.025Z,2.20
2022-08-23T11:58:07.141Z,2.42
2022-08-23T12:01:00.090Z,2.40
2022-08-23T12:03:34.623Z,2.70
2022-08-23T12:06:13.322Z,2.67
2022-08-23T12:08:54.401Z,2.30
2022-08-23T12:11:25.715Z,2.05
2022-08-23T12:14:01.639Z,2.40
2022-08-23T12:16:41.925Z,2.30
2022-08-23T12:19:27.042Z,2.20
2022-08-23T12:21:58.394Z,2.60
2022-08-23T12:24:34.627Z,3.03
2022-08-23T12:27:32.910Z,3.40
2022-08-23T12:30:07.536Z,3.85
2022-08-23T12:32:58.783Z,3.40
2022-08-23T12:35:37.180Z,3.20
2022-08-23T12:38:12.630Z,3.72
2022-08-23T12:40:58.253Z,2.50
2022-08-23T12:43:33.478Z,3.50
2022-08-23T12:46:14.672Z,3.28
2022-08-23T12:48:49.315Z,3.00
2022-08-23T12:51:32.465Z,3.13
2022-08-23T12:54:15.652Z,3.30
2022-08-23T12:56:48.522Z,3.50
2022-08-23T12:59:35.529Z,4.22
2022-08-23T13:02:09.977Z,4.20
2022-08-23T13:04:44.830Z,4.15
2022-08-23T13:07:17.743Z,4.28
2022-08-23T13:09:53.799Z,4.15
2022-08-23T13:12:25.400Z,4.63
2022-08-23T13:15:01.886Z,4.25
2022-08-23T13:17:37.296Z,4.20
2022-08-23T13:20:22.063Z,3.80
2022-08-23T13:23:01.302Z,4.25
2022-08-23T13:25:33.898Z,5.55
2022-08-23T13:28:05.758Z,4.90
2022-08-23T13:30:36.846Z,6.10
2022-08-23T13:33:26.292Z,5.88
2022-08-23T13:36:13.353Z,7.80
2022-08-23T13:38:44.340Z,9.30
2022-08-23T13:41:28.891Z,8.30
2022-08-23T13:43:58.323Z,10.37
2022-08-23T13:46:30.319Z,9.98
2022-08-23T13:49:02.551Z,9.68
2022-08-23T13:51:38.844Z,10.20
2022-08-23T13:54:10.377Z,9.15
2022-08-23T13:56:44.847Z,7.60
2022-08-23T13:59:31.100Z,8.25
2022-08-23T14:02:03.444Z,8.80
2022-08-23T14:04:32.759Z,10.52
2022-08-23T14:07:03.492Z,10.07
2022-08-23T14:09:34.060Z,12.25
2022-08-23T14:12:06.718Z,13.20
2022-08-23T14:17:10.710Z,12.43
2022-08-23T14:22:36.772Z,11.07
2022-08-23T14:25:06.876Z,8.30
2022-08-23T14:27:36.369Z,9.18
2022-08-23T14:30:06.490Z,7.78
2022-08-23T14:32:35.911Z,8.85
2022-08-23T14:35:15.019Z,9.07
2022-08-23T14:38:03.396Z,9.45
2022-08-23T14:40:36.197Z,10.90
2022-08-23T14:43:06.588Z,10.00
2022-08-23T14:45:36.050Z,8.43
2022-08-23T14:48:05.839Z,9.90
2022-08-23T14:50:39.015Z,12.88
2022-08-23T14:53:10.523Z,10.68
2022-08-23T14:55:39.877Z,10.70
2022-08-23T14:58:09.153Z,25.52
2022-08-23T15:00:39.401Z,16.45
2022-08-23T15:03:20.488Z,16.02
2022-08-23T15:05:49.725Z,16.45
2022-08-23T15:08:20.819Z,16.83
2022-08-23T15:13:14.291Z,19.35
2022-08-23T15:13:54.926Z,23.30
2022-08-23T15:16:25.495Z,29.98
2022-08-23T15:18:55.708Z,33.33
2022-08-23T15:21:25.253Z,31.02
2022-08-23T15:23:56.066Z,37.65
2022-08-23T15:26:27.498Z,31.77
2022-08-23T15:28:56.631Z,36.03
2022-08-23T15:31:26.794Z,29.65
2022-08-23T15:33:56.065Z,30.58
2022-08-23T15:36:25.330Z,32.67
2022-08-23T15:38:56.602Z,34.10
2022-08-23T15:41:26.089Z,33.65
2022-08-23T15:43:55.622Z,35.15
2022-08-23T15:46:26.329Z,34.83
2022-08-23T15:48:59.031Z,36.28
2022-08-23T15:51:28.476Z,36.38
2022-08-23T15:53:59.824Z,35.50
2022-08-23T15:56:38.358Z,36.67
2022-08-23T15:59:10.316Z,35.78
2022-08-23T16:01:39.773Z,36.33
2022-08-23T16:04:14.861Z,40.67
2022-08-23T16:06:45.627Z,35.95
2022-08-23T16:10:22.067Z,36.20
2022-08-23T16:14:32.979Z,33.22
2022-08-23T16:21:10.660Z,29.67
2022-08-23T16:23:40.586Z,27.13
2022-08-23T16:26:12.422Z,29.25
2022-08-23T16:28:49.506Z,28.75
2022-08-23T16:31:19.542Z,27.10
2022-08-23T16:33:49.822Z,27.63
2022-08-23T16:36:21.201Z,25.63
2022-08-23T16:38:51.505Z,27.70
2022-08-23T16:41:20.633Z,25.92
2022-08-23T16:43:49.997Z,25.60
2022-08-23T16:46:19.941Z,26.20
2022-08-23T16:48:49.181Z,26.48
2022-08-23T16:51:20.132Z,25.20
2022-08-23T16:54:01.528Z,25.25
2022-08-23T16:56:33.961Z,24.58
2022-08-23T16:59:03.618Z,22.30
2022-08-23T17:01:44.292Z,20.38
2022-08-23T17:04:13.529Z,20.80
2022-08-23T17:06:44.757Z,22.08
2022-08-23T17:09:14.497Z,21.60
2022-08-23T17:11:45.819Z,20.75
2022-08-23T17:14:15.155Z,20.30
2022-08-23T17:16:45.764Z,21.85
2022-08-23T17:19:17.416Z,20.83
2022-08-23T17:21:48.130Z,20.30
2022-08-23T17:24:17.380Z,20.23
2022-08-23T17:26:46.633Z,19.33
2022-08-23T17:29:16.884Z,18.08
2022-08-23T17:31:49.601Z,17.85
2022-08-23T17:34:19.402Z,18.83
2022-08-23T17:36:53.253Z,19.15
2022-08-23T17:39:24.929Z,16.95
2022-08-23T17:41:54.501Z,17.23
2022-08-23T17:44:23.885Z,15.55
2022-08-23T17:46:53.471Z,16.55
2022-08-23T17:49:22.714Z,16.27
2022-08-23T17:51:53.451Z,15.02
2022-08-23T17:54:22.607Z,14.32
2022-08-23T17:56:53.215Z,14.60
2022-08-23T17:59:23.074Z,14.32
2022-08-23T18:01:52.603Z,12.73
2022-08-23T18:04:21.901Z,13.07
2022-08-23T18:06:52.946Z,12.23
2022-08-23T18:09:22.297Z,12.55
2022-08-23T18:11:51.955Z,12.23
2022-08-23T18:14:21.137Z,12.02
2022-08-23T18:16:50.807Z,12.18
2022-08-23T18:19:20.049Z,10.88
2022-08-23T18:21:50.055Z,11.48
2022-08-23T18:24:21.595Z,10.85
2022-08-23T18:27:08.218Z,11.18
2022-08-23T18:29:39.455Z,9.73
2022-08-23T18:32:10.661Z,10.15
2022-08-23T18:34:40.624Z,9.80
2022-08-23T18:37:09.836Z,9.93
2022-08-23T18:39:40.474Z,9.55
2022-08-23T18:42:10.024Z,9.18
2022-08-23T18:44:39.219Z,8.48
2022-08-23T18:47:09.317Z,9.00
2022-08-23T18:49:39.143Z,8.40
2022-08-23T18:52:08.642Z,8.43
2022-08-23T18:54:40.225Z,8.85
2022-08-23T18:57:15.900Z,8.80
2022-08-23T18:59:45.571Z,8.13
2022-08-23T19:02:14.892Z,8.77
2022-08-23T19:04:44.133Z,9.32
2022-08-23T19:07:13.354Z,8.15
2022-08-23T19:09:44.105Z,8.38
2022-08-23T19:12:13.369Z,8.32
2022-08-23T19:14:42.541Z,7.82
2022-08-23T19:17:11.803Z,8.05
2022-08-23T19:19:41.029Z,8.40
2022-08-23T19:22:10.206Z,8.02
2022-08-23T19:24:39.333Z,8.40
2022-08-23T19:27:10.514Z,8.35
2022-08-23T19:29:39.702Z,8.75
2022-08-23T19:32:09.099Z,8.77
2022-08-23T19:34:38.301Z,8.35
2022-08-23T19:37:09.083Z,9.02
2022-08-23T19:39:49.894Z,8.13
2022-08-23T19:42:20.939Z,8.73
2022-08-23T19:44:50.134Z,7.97
2022-08-23T19:47:21.144Z,7.68
2022-08-23T19:49:51.898Z,8.10
2022-08-23T19:52:21.096Z,7.93
2022-08-23T19:54:50.715Z,8.02
2022-08-23T19:57:21.459Z,7.18
2022-08-23T19:59:50.710Z,7.45
2022-08-23T20:02:19.963Z,7.72
2022-08-23T20:04:49.178Z,7.85
2022-08-23T20:07:18.366Z,7.00
2022-08-23T20:09:47.550Z,7.75
2022-08-23T20:12:17.770Z,7.95
2022-08-23T20:14:50.001Z,7.50
2022-08-23T20:17:19.121Z,6.82
2022-08-23T20:19:48.727Z,6.78
2022-08-23T20:22:35.526Z,7.95
2022-08-23T20:25:05.947Z,7.38
2022-08-23T20:27:37.411Z,7.57
2022-08-23T20:30:10.191Z,7.45
2022-08-23T20:32:39.782Z,7.13
2022-08-23T20:35:12.329Z,7.60
2022-08-23T20:37:41.643Z,7.15
2022-08-23T20:40:12.248Z,7.60
2022-08-23T20:42:41.549Z,6.55
2022-08-23T20:45:13.035Z,7.10
2022-08-23T20:47:42.254Z,6.90
2022-08-23T20:50:11.578Z,8.18
2022-08-23T20:52:40.776Z,6.97
2022-08-23T20:55:11.051Z,7.35
2022-08-23T20:57:40.378Z,7.10
2022-08-23T21:00:13.179Z,7.55
2022-08-23T21:02:42.373Z,7.25
2022-08-23T21:05:11.827Z,7.10
2022-08-23T21:07:41.101Z,6.35
2022-08-23T21:10:11.793Z,6.97
2022-08-23T21:12:41.032Z,7.32
2022-08-23T21:15:13.036Z,6.97
2022-08-23T21:17:42.261Z,7.00
2022-08-23T21:20:12.137Z,7.30
2022-08-23T21:22:41.322Z,7.65
2022-08-23T21:25:11.210Z,7.25
2022-08-23T21:27:40.495Z,7.25
2022-08-23T21:30:12.919Z,7.57
2022-08-23T21:32:42.088Z,7.40
2022-08-23T21:35:14.201Z,7.10
2022-08-23T21:37:43.366Z,7.82
2022-08-23T21:40:14.000Z,7.45
2022-08-23T21:42:43.255Z,7.45
2022-08-23T21:45:14.009Z,7.72
2022-08-23T21:47:43.214Z,7.88
2022-08-23T21:50:12.821Z,7.53
2022-08-23T21:52:42.382Z,7.05
2022-08-23T21:55:12.405Z,8.25
2022-08-23T21:57:42.934Z,8.25
2022-08-23T22:00:18.014Z,8.30
2022-08-23T22:02:47.976Z,8.65
2022-08-23T22:05:17.325Z,8.98
2022-08-23T22:07:47.582Z,8.93
2022-08-23T22:10:16.993Z,9.93
2022-08-23T22:12:47.674Z,10.15
2022-08-23T22:15:19.111Z,8.80
2022-08-23T22:17:48.294Z,9.18
2022-08-23T22:20:17.681Z,10.57
2022-08-23T22:22:48.010Z,9.70
2022-08-23T22:25:17.758Z,9.00
2022-08-23T22:27:47.978Z,10.02
2022-08-23T22:30:19.554Z,9.13
2022-08-23T22:32:48.732Z,9.60
2022-08-23T22:35:18.636Z,10.27
2022-08-23T22:38:10.278Z,9.07
2022-08-23T22:40:37.204Z,9.85
2022-08-23T22:43:06.383Z,9.68
2022-08-23T22:45:37.079Z,10.02
2022-08-23T22:48:06.578Z,10.13
2022-08-23T22:50:35.778Z,15.13
2022-08-23T22:53:04.971Z,18.77
2022-08-23T22:55:34.130Z,17.17
2022-08-23T22:58:03.595Z,16.75
2022-08-23T23:00:32.887Z,15.60
2022-08-23T23:03:03.825Z,16.92
2022-08-23T23:05:35.431Z,17.02
2022-08-23T23:08:22.006Z,15.27
2022-08-23T23:10:51.192Z,13.95
2022-08-23T23:13:20.384Z,13.63
2022-08-23T23:15:50.581Z,12.82
2022-08-23T23:18:21.527Z,11.93
2022-08-23T23:20:50.626Z,11.00
2022-08-23T23:23:22.335Z,11.15
2022-08-23T23:25:52.446Z,10.88
2022-08-23T23:28:22.118Z,10.88
2022-08-23T23:30:53.319Z,9.85
2022-08-23T23:33:24.592Z,10.13
2022-08-23T23:35:53.690Z,10.80
2022-08-23T23:38:22.872Z,10.52
2022-08-23T23:40:52.440Z,9.65
2022-08-23T23:43:21.658Z,9.70
2022-08-23T23:45:50.926Z,9.93
2022-08-23T23:48:20.386Z,10.18
2022-08-23T23:50:51.118Z,10.68
2022-08-23T23:53:20.699Z,10.95
2022-08-23T23:55:50.017Z,9.65
2022-08-23T23:58:19.269Z,10.70
